createdAt,value
2023-04-10T00:00:25.381Z,94662.53
2023-04-10T00:02:53.545Z,94658.69
2023-04-10T00:05:21.652Z,94661.09
2023-04-10T00:07:49.497Z,94660.00
2023-04-10T00:10:17.498Z,94651.53
2023-04-10T00:12:46.825Z,94654.09
2023-04-10T00:15:14.690Z,94659.88
2023-04-10T00:17:42.583Z,94651.16
2023-04-10T00:20:11.305Z,94643.25
2023-04-10T00:22:39.272Z,94651.22
2023-04-10T00:25:07.972Z,94648.00
2023-04-10T00:27:35.896Z,94640.22
2023-04-10T00:30:05.805Z,94639.19
2023-04-10T00:32:33.626Z,94644.84
2023-04-10T00:35:01.635Z,94639.78
2023-04-10T00:37:29.500Z,94644.59
2023-04-10T00:39:57.436Z,94642.09
2023-04-10T00:42:25.380Z,94638.47
2023-04-10T00:44:53.286Z,94630.94
2023-04-10T00:47:22.742Z,94635.44
2023-04-10T00:49:50.847Z,94633.56
2023-04-10T00:52:18.987Z,94637.72
2023-04-10T00:54:46.924Z,94639.69
2023-04-10T00:57:14.863Z,94639.91
2023-04-10T00:59:42.840Z,94636.69
2023-04-10T01:02:13.034Z,94639.91
2023-04-10T01:04:43.303Z,94632.31
2023-04-10T01:07:22.962Z,94625.06
2023-04-10T01:09:58.300Z,94624.09
2023-04-10T01:12:41.969Z,94624.75
2023-04-10T01:15:13.999Z,94619.28
2023-04-10T01:17:47.010Z,94609.38
2023-04-10T01:20:23.125Z,94619.13
2023-04-10T01:23:11.135Z,94616.25
2023-04-10T01:25:42.349Z,94621.06
2023-04-10T01:28:25.961Z,94611.16
2023-04-10T01:30:59.172Z,94614.25
2023-04-10T01:33:33.008Z,94615.50
2023-04-10T01:36:04.234Z,94612.94
2023-04-10T01:38:35.295Z,94608.84
2023-04-10T01:41:04.738Z,94608.75
2023-04-10T01:43:33.861Z,94617.09
2023-04-10T01:46:04.388Z,94620.03
2023-04-10T01:48:32.434Z,94611.47
2023-04-10T01:51:01.639Z,94617.66
2023-04-10T01:53:30.700Z,94628.16
2023-04-10T01:55:59.340Z,94619.22
2023-04-10T01:58:27.727Z,94617.97
2023-04-10T02:00:55.640Z,94622.31
2023-04-10T02:03:25.094Z,94620.41
2023-04-10T02:06:03.580Z,94616.34
2023-04-10T02:08:36.192Z,94615.41
2023-04-10T02:11:11.606Z,94607.31
2023-04-10T02:13:41.950Z,94608.13
2023-04-10T02:16:10.939Z,94594.69
2023-04-10T02:18:42.389Z,94592.09
2023-04-10T02:21:10.696Z,94597.78
2023-04-10T02:23:38.721Z,94586.78
2023-04-10T02:26:10.730Z,94589.00
2023-04-10T02:28:39.316Z,94579.47
2023-04-10T02:31:07.733Z,94576.25
2023-04-10T02:33:35.796Z,94582.72
2023-04-10T02:36:05.598Z,94583.88
2023-04-10T02:38:33.440Z,94570.75
2023-04-10T02:41:01.327Z,94571.06
2023-04-10T02:43:29.746Z,94578.47
2023-04-10T02:45:57.657Z,94570.66
2023-04-10T02:48:25.558Z,94568.53
2023-04-10T02:50:57.818Z,94567.22
2023-04-10T02:53:27.156Z,94562.78
2023-04-10T02:55:55.643Z,94556.59
2023-04-10T02:58:23.586Z,94559.19
2023-04-10T03:00:51.882Z,94555.25
2023-04-10T03:03:20.551Z,94561.53
2023-04-10T03:05:49.542Z,94560.09
2023-04-10T03:08:17.925Z,94560.25
2023-04-10T03:10:48.626Z,94563.28
2023-04-10T03:13:16.949Z,94554.53
2023-04-10T03:15:44.874Z,94556.44
2023-04-10T03:18:13.932Z,94561.91
2023-04-10T03:20:43.164Z,94562.78
2023-04-10T03:23:13.037Z,94563.69
2023-04-10T03:25:41.229Z,94568.34
2023-04-10T03:28:10.750Z,94567.81
2023-04-10T03:30:38.909Z,94569.75
2023-04-10T03:33:06.803Z,94570.19
2023-04-10T03:35:34.715Z,94570.91
2023-04-10T03:38:03.059Z,94572.09
2023-04-10T03:40:31.330Z,94572.59
2023-04-10T03:42:59.236Z,94572.09
2023-04-10T03:45:28.602Z,94575.94
2023-04-10T03:47:56.546Z,94575.75
2023-04-10T03:50:24.499Z,94581.97
2023-04-10T03:52:52.622Z,94581.03
2023-04-10T03:55:21.047Z,94585.78
2023-04-10T03:57:49.517Z,94580.66
2023-04-10T04:00:18.295Z,94584.41
2023-04-10T04:02:47.704Z,94578.59
2023-04-10T04:05:15.750Z,94584.72
2023-04-10T04:07:43.767Z,94586.59
2023-04-10T04:10:11.762Z,94565.59
2023-04-10T04:12:39.600Z,94591.50
2023-04-10T04:15:08.667Z,94593.25
2023-04-10T04:17:36.624Z,94595.13
2023-04-10T04:20:07.104Z,94590.94
2023-04-10T04:22:35.001Z,94586.34
2023-04-10T04:25:03.215Z,94587.94
2023-04-10T04:27:31.098Z,94590.47
2023-04-10T04:29:59.001Z,94589.78
2023-04-10T04:32:26.835Z,94592.31
2023-04-10T04:34:54.760Z,94588.78
2023-04-10T04:37:24.051Z,94587.22
2023-04-10T04:39:52.146Z,94590.78
2023-04-10T04:42:19.981Z,94594.31
2023-04-10T04:44:47.898Z,94596.97
2023-04-10T04:47:15.798Z,94595.63
2023-04-10T04:49:43.709Z,94611.13
2023-04-10T04:52:11.600Z,94603.84
2023-04-10T04:54:40.874Z,94604.28
2023-04-10T04:57:08.815Z,94608.28
2023-04-10T04:59:38.266Z,94609.72
2023-04-10T05:02:06.291Z,94612.84
2023-04-10T05:04:34.179Z,94616.66
2023-04-10T05:07:02.032Z,94615.91
2023-04-10T05:09:29.897Z,94623.53
2023-04-10T05:11:59.174Z,94620.50
2023-04-10T05:14:27.129Z,94619.31
2023-04-10T05:16:55.019Z,94611.09
2023-04-10T05:19:23.907Z,94624.22
2023-04-10T05:21:51.782Z,94621.06
2023-04-10T05:24:19.650Z,94617.88
2023-04-10T05:26:48.013Z,94622.38
2023-04-10T05:29:17.285Z,94622.69
2023-04-10T05:31:45.639Z,94623.38
2023-04-10T05:34:13.564Z,94620.31
2023-04-10T05:36:41.793Z,94621.34
2023-04-10T05:39:09.945Z,94615.91
2023-04-10T05:41:37.797Z,94616.88
2023-04-10T05:44:05.725Z,94620.31
2023-04-10T05:46:35.141Z,94622.97
2023-04-10T05:49:03.469Z,94624.97
2023-04-10T05:51:32.046Z,94622.41
2023-04-10T05:53:59.950Z,94631.34
2023-04-10T05:56:27.806Z,94634.63
2023-04-10T05:58:55.974Z,94633.66
2023-04-10T06:01:24.258Z,94628.97
2023-04-10T06:03:53.672Z,94631.22
2023-04-10T06:06:22.446Z,94636.75
2023-04-10T06:08:50.475Z,94631.25
2023-04-10T06:11:18.317Z,94630.78
2023-04-10T06:13:47.209Z,94635.69
2023-04-10T06:16:16.477Z,94636.34
2023-04-10T06:18:44.520Z,94621.34
2023-04-10T06:21:13.810Z,94625.22
2023-04-10T06:23:42.539Z,94625.72
2023-04-10T06:26:10.592Z,94633.19
2023-04-10T06:28:38.972Z,94623.31
2023-04-10T06:31:08.302Z,94624.94
2023-04-10T06:33:37.017Z,94618.78
2023-04-10T06:36:06.925Z,94618.44
2023-04-10T06:38:37.973Z,94620.41
2023-04-10T06:41:06.876Z,94626.22
2023-04-10T06:43:36.155Z,94626.41
2023-04-10T06:46:04.950Z,94631.59
2023-04-10T06:48:33.054Z,94628.03
2023-04-10T06:51:01.656Z,94630.13
2023-04-10T06:53:29.829Z,94642.75
2023-04-10T06:56:02.981Z,94638.22
2023-04-10T06:58:36.270Z,94641.13
2023-04-10T07:01:04.549Z,94640.63
2023-04-10T07:03:33.859Z,94637.25
2023-04-10T07:06:03.339Z,94639.50
2023-04-10T07:08:31.409Z,94644.56
2023-04-10T07:11:00.642Z,94644.38
2023-04-10T07:13:28.515Z,94644.53
2023-04-10T07:15:56.395Z,94640.13
2023-04-10T07:18:24.337Z,94641.88
2023-04-10T07:20:52.472Z,94640.91
2023-04-10T07:23:20.533Z,94628.59
2023-04-10T07:25:48.709Z,94641.75
2023-04-10T07:28:17.925Z,94642.06
2023-04-10T07:30:46.223Z,94648.41
2023-04-10T07:33:14.306Z,94647.88
2023-04-10T07:35:42.382Z,94643.84
2023-04-10T07:38:10.525Z,94637.53
2023-04-10T07:40:38.376Z,94643.88
2023-04-10T07:43:06.254Z,94648.38
2023-04-10T07:45:35.679Z,94649.28
2023-04-10T07:48:03.610Z,94645.84
2023-04-10T07:50:31.925Z,94646.81
2023-04-10T07:53:03.516Z,94642.09
2023-04-10T07:55:31.509Z,94642.41
2023-04-10T07:57:59.413Z,94647.91
2023-04-10T08:00:27.420Z,94646.53
2023-04-10T08:02:56.945Z,94647.09
2023-04-10T08:05:25.349Z,94640.53
2023-04-10T08:07:53.437Z,94637.94
2023-04-10T08:10:21.545Z,94643.28
2023-04-10T08:12:49.474Z,94646.19
2023-04-10T08:15:18.647Z,94627.69
2023-04-10T08:17:46.728Z,94642.41
2023-04-10T08:20:16.478Z,94642.09
2023-04-10T08:22:44.403Z,94641.69
2023-04-10T08:25:12.308Z,94642.97
2023-04-10T08:27:40.271Z,94645.38
2023-04-10T08:30:09.537Z,94641.78
2023-04-10T08:32:37.591Z,94642.59
2023-04-10T08:35:06.308Z,94636.19
2023-04-10T08:37:35.552Z,94633.13
2023-04-10T08:40:03.765Z,94639.03
2023-04-10T08:42:34.504Z,94646.19
2023-04-10T08:45:05.498Z,94637.88
2023-04-10T08:47:38.675Z,94637.97
2023-04-10T08:50:09.225Z,94632.22
2023-04-10T08:52:44.460Z,94636.09
2023-04-10T08:55:14.418Z,94639.03
2023-04-10T08:57:50.836Z,94629.66
2023-04-10T09:00:28.095Z,94622.16
2023-04-10T09:02:58.769Z,94627.63
2023-04-10T09:05:28.487Z,94618.09
2023-04-10T09:07:57.822Z,94621.88
2023-04-10T09:10:25.879Z,94624.72
2023-04-10T09:12:55.066Z,94619.25
2023-04-10T09:15:24.262Z,94610.91
2023-04-10T09:18:03.010Z,94610.25
2023-04-10T09:20:33.315Z,94616.91
2023-04-10T09:23:02.848Z,94601.38
2023-04-10T09:25:35.859Z,94601.16
2023-04-10T09:28:05.527Z,94612.94
2023-04-10T09:30:39.308Z,94599.25
2023-04-10T09:33:23.973Z,94609.63
2023-04-10T09:35:52.208Z,94605.94
2023-04-10T09:38:22.916Z,94606.59
2023-04-10T09:40:52.326Z,94603.09
2023-04-10T09:43:23.629Z,94605.44
2023-04-10T09:45:53.410Z,94598.34
2023-04-10T09:48:23.508Z,94594.53
2023-04-10T09:50:51.919Z,94597.78
2023-04-10T09:53:22.704Z,94593.91
2023-04-10T09:55:51.697Z,94604.97
2023-04-10T09:58:20.132Z,94583.28
2023-04-10T10:00:49.990Z,94589.59
2023-04-10T10:03:21.126Z,94599.72
2023-04-10T10:05:50.659Z,94588.91
2023-04-10T10:08:19.105Z,94588.53
2023-04-10T10:10:51.472Z,94584.34
2023-04-10T10:13:26.606Z,94588.13
2023-04-10T10:16:01.912Z,94573.25
2023-04-10T10:18:38.746Z,94581.16
2023-04-10T10:21:09.186Z,94581.16
2023-04-10T10:23:38.959Z,94575.97
2023-04-10T10:26:08.943Z,94568.97
2023-04-10T10:28:37.777Z,94565.81
2023-04-10T10:31:06.787Z,94549.22
2023-04-10T10:33:37.226Z,94555.97
2023-04-10T10:36:06.080Z,94564.56
2023-04-10T10:38:35.040Z,94554.75
2023-04-10T10:41:12.456Z,94545.44
2023-04-10T10:43:51.910Z,94553.88
2023-04-10T10:46:25.751Z,94544.81
2023-04-10T10:48:59.661Z,94547.59
2023-04-10T10:51:46.771Z,94542.97
2023-04-10T10:54:31.448Z,94538.75
2023-04-10T10:57:01.021Z,94541.63
2023-04-10T10:59:59.562Z,94540.78
2023-04-10T11:02:27.688Z,94537.84
2023-04-10T11:04:55.922Z,94526.13
2023-04-10T11:07:43.793Z,94516.75
2023-04-10T11:10:11.864Z,94520.22
2023-04-10T11:13:16.693Z,94517.00
2023-04-10T11:15:44.881Z,94515.59
2023-04-10T11:18:12.818Z,94513.47
2023-04-10T11:21:10.356Z,94507.22
2023-04-10T11:23:41.549Z,94494.19
2023-04-10T11:26:09.450Z,94497.31
2023-04-10T11:28:41.748Z,94506.69
2023-04-10T11:31:18.658Z,94500.44
2023-04-10T11:33:47.795Z,94499.91
2023-04-10T11:36:17.584Z,94492.31
2023-04-10T11:38:56.317Z,94502.53
2023-04-10T11:41:28.880Z,94495.34
2023-04-10T11:43:58.700Z,94497.75
2023-04-10T11:46:26.861Z,94489.72
2023-04-10T11:48:56.066Z,94498.25
2023-04-10T11:51:24.274Z,94502.06
2023-04-10T11:54:06.289Z,94497.41
2023-04-10T11:56:34.195Z,94494.75
2023-04-10T11:59:07.440Z,94494.91
2023-04-10T12:01:35.612Z,94491.44
2023-04-10T12:04:03.701Z,94494.66
2023-04-10T12:06:32.286Z,94486.88
2023-04-10T12:09:00.312Z,94486.19
2023-04-10T12:11:29.714Z,94493.84
2023-04-10T12:13:58.989Z,94492.31
2023-04-10T12:16:29.019Z,94482.25
2023-04-10T12:18:57.299Z,94502.13
2023-04-10T12:21:26.316Z,94508.44
2023-04-10T12:23:54.250Z,94495.06
2023-04-10T12:26:22.341Z,94520.38
2023-04-10T12:28:55.507Z,94518.53
2023-04-10T12:31:33.288Z,94525.13
2023-04-10T12:34:02.536Z,94523.56
2023-04-10T12:36:32.250Z,94519.09
2023-04-10T12:39:01.221Z,94518.16
2023-04-10T12:41:31.436Z,94507.28
2023-04-10T12:44:09.912Z,94496.13
2023-04-10T12:46:39.954Z,94493.41
2023-04-10T12:49:12.483Z,94502.31
2023-04-10T12:51:47.499Z,94495.81
2023-04-10T12:54:31.915Z,94503.53
2023-04-10T12:57:00.738Z,94497.50
2023-04-10T12:59:29.102Z,94499.31
2023-04-10T13:01:58.561Z,94500.28
2023-04-10T13:04:27.044Z,94487.50
2023-04-10T13:06:55.119Z,94494.13
2023-04-10T13:09:22.961Z,94488.13
2023-04-10T13:11:52.775Z,94487.19
2023-04-10T13:14:20.822Z,94475.09
2023-04-10T13:16:48.989Z,94484.69
2023-04-10T13:19:18.393Z,94475.19
2023-04-10T13:21:46.311Z,94479.78
2023-04-10T13:24:16.492Z,94467.63
2023-04-10T13:26:44.763Z,94466.06
2023-04-10T13:29:12.717Z,94454.59
2023-04-10T13:31:40.746Z,94459.84
2023-04-10T13:34:08.704Z,94454.78
2023-04-10T13:36:38.113Z,94454.03
2023-04-10T13:39:06.204Z,94455.38
2023-04-10T13:41:34.222Z,94449.97
2023-04-10T13:44:02.187Z,94452.22
2023-04-10T13:46:30.076Z,94448.28
2023-04-10T13:48:58.490Z,94447.78
2023-04-10T13:51:27.879Z,94443.09
2023-04-10T13:53:57.116Z,94437.34
2023-04-10T13:56:24.977Z,94435.72
2023-04-10T13:58:52.988Z,94433.53
2023-04-10T14:01:21.316Z,94425.28
2023-04-10T14:03:49.519Z,94432.03
2023-04-10T14:06:17.567Z,94436.34
2023-04-10T14:08:45.458Z,94430.63
2023-04-10T14:11:14.842Z,94433.97
2023-04-10T14:13:42.765Z,94428.94
2023-04-10T14:16:11.891Z,94413.50
2023-04-10T14:18:39.904Z,94427.81
2023-04-10T14:21:08.412Z,94425.22
2023-04-10T14:23:36.485Z,94427.84
2023-04-10T14:26:06.572Z,94437.81
2023-04-10T14:28:36.322Z,94436.25
2023-04-10T14:31:06.395Z,94428.28
2023-04-10T14:33:35.112Z,94437.47
2023-04-10T14:36:03.234Z,94435.53
2023-04-10T14:38:31.347Z,94437.47
2023-04-10T14:40:59.235Z,94435.81
2023-04-10T14:43:27.112Z,94437.44
2023-04-10T14:45:56.776Z,94425.41
2023-04-10T14:48:24.902Z,94418.97
2023-04-10T14:50:52.886Z,94436.59
2023-04-10T14:53:21.690Z,94444.94
2023-04-10T14:55:49.579Z,94441.03
2023-04-10T14:58:17.665Z,94442.41
2023-04-10T15:00:45.995Z,94426.28
2023-04-10T15:03:15.435Z,94438.81
2023-04-10T15:05:43.542Z,94429.00
2023-04-10T15:08:11.880Z,94425.53
2023-04-10T15:10:39.805Z,94429.63
2023-04-10T15:13:07.708Z,94431.25
2023-04-10T15:15:35.654Z,94430.38
2023-04-10T15:18:03.612Z,94431.94
2023-04-10T15:20:33.016Z,94434.88
2023-04-10T15:23:02.588Z,94402.34
2023-04-10T15:25:31.130Z,94426.53
2023-04-10T15:28:01.769Z,94421.25
2023-04-10T15:30:30.088Z,94431.94
2023-04-10T15:32:58.078Z,94421.72
2023-04-10T15:35:26.614Z,94422.06
2023-04-10T15:37:55.978Z,94419.44
2023-04-10T15:40:23.871Z,94411.72
2023-04-10T15:42:52.734Z,94408.91
2023-04-10T15:45:20.756Z,94410.66
2023-04-10T15:47:49.165Z,94414.56
2023-04-10T15:50:17.224Z,94414.75
2023-04-10T15:52:45.164Z,94413.84
2023-04-10T15:55:14.491Z,94411.22
2023-04-10T15:57:42.375Z,94420.97
2023-04-10T16:00:11.565Z,94412.31
2023-04-10T16:02:39.731Z,94414.72
2023-04-10T16:05:09.373Z,94407.31
2023-04-10T16:07:40.698Z,94409.50
2023-04-10T16:10:09.656Z,94398.69
2023-04-10T16:12:39.096Z,94407.00
2023-04-10T16:15:08.382Z,94413.25
2023-04-10T16:17:36.462Z,94413.06
2023-04-10T16:20:07.627Z,94406.47
2023-04-10T16:22:36.575Z,94403.38
2023-04-10T16:27:38.865Z,94409.03
2023-04-10T16:30:08.275Z,94408.47
2023-04-10T16:32:36.558Z,94403.97
2023-04-10T16:35:04.881Z,94442.66
2023-04-10T16:37:32.814Z,94435.63
2023-04-10T16:40:00.978Z,94440.59
2023-04-10T16:42:29.049Z,94443.28
2023-04-10T16:45:02.135Z,94442.41
2023-04-10T16:47:30.318Z,94445.03
2023-04-10T16:49:58.211Z,94443.03
2023-04-10T16:52:26.265Z,94439.50
2023-04-10T16:54:57.092Z,94429.63
2023-04-10T16:57:27.738Z,94441.91
2023-04-10T17:00:00.332Z,94435.91
2023-04-10T17:02:29.805Z,94432.19
2023-04-10T17:04:57.820Z,94434.13
2023-04-10T17:07:26.036Z,94426.00
2023-04-10T17:09:55.460Z,94421.50
2023-04-10T17:12:23.505Z,94421.47
2023-04-10T17:14:52.711Z,94434.97
2023-04-10T17:17:22.409Z,94428.34
2023-04-10T17:19:50.415Z,94426.59
2023-04-10T17:22:19.876Z,94432.44
2023-04-10T17:24:49.336Z,94421.81
2023-04-10T17:27:17.471Z,94426.38
2023-04-10T17:29:45.864Z,94433.50
2023-04-10T17:32:14.605Z,94435.63
2023-04-10T17:34:44.195Z,94420.72
2023-04-10T17:37:14.764Z,94428.97
2023-04-10T17:39:42.656Z,94428.97
2023-04-10T17:42:10.900Z,94427.84
2023-04-10T17:44:39.034Z,94441.25
2023-04-10T17:47:06.914Z,94442.53
2023-04-10T17:49:34.962Z,94443.72
2023-04-10T17:52:04.597Z,94445.22
2023-04-10T17:54:32.610Z,94449.72
2023-04-10T17:57:00.947Z,94451.06
2023-04-10T17:59:31.114Z,94446.38
2023-04-10T18:01:59.077Z,94459.06
2023-04-10T18:04:27.219Z,94460.38
2023-04-10T18:06:55.208Z,94465.22
2023-04-10T18:09:24.519Z,94468.94
2023-04-10T18:11:52.573Z,94464.72
2023-04-10T18:14:20.819Z,94465.88
2023-04-10T18:16:50.185Z,94468.78
2023-04-10T18:19:18.212Z,94467.34
2023-04-10T18:21:46.132Z,94469.91
2023-04-10T18:24:14.259Z,94469.13
2023-04-10T18:26:45.270Z,94472.34
2023-04-10T18:29:31.290Z,94469.91
2023-04-10T18:31:59.204Z,94484.69
2023-04-10T18:34:27.365Z,94488.41
2023-04-10T18:36:55.759Z,94486.97
2023-04-10T18:39:23.669Z,94481.59
2023-04-10T18:41:53.095Z,94481.59
2023-04-10T18:44:21.090Z,94491.00
2023-04-10T18:46:57.511Z,94489.22
2023-04-10T18:49:32.223Z,94490.19
2023-04-10T18:52:00.164Z,94470.56
2023-04-10T18:54:28.086Z,94488.06
2023-04-10T18:56:57.814Z,94488.75
2023-04-10T18:59:25.836Z,94470.56
2023-04-10T19:01:53.846Z,94491.97
2023-04-10T19:04:21.915Z,94479.50
2023-04-10T19:06:49.897Z,94474.00
2023-04-10T19:09:17.808Z,94485.00
2023-04-10T19:11:47.393Z,94483.69
2023-04-10T19:14:16.651Z,94485.47
2023-04-10T19:16:44.571Z,94473.97
2023-04-10T19:19:12.475Z,94470.56
2023-04-10T19:21:40.386Z,94476.25
2023-04-10T19:24:08.648Z,94455.69
2023-04-10T19:26:37.592Z,94474.09
2023-04-10T19:29:05.703Z,94477.00
2023-04-10T19:31:35.093Z,94484.28
2023-04-10T19:34:09.006Z,94477.78
2023-04-10T19:36:37.525Z,94464.16
2023-04-10T19:39:06.309Z,94472.59
2023-04-10T19:41:34.364Z,94458.16
2023-04-10T19:44:02.932Z,94468.03
2023-04-10T19:46:30.929Z,94471.25
2023-04-10T19:49:00.337Z,94462.66
2023-04-10T19:51:28.478Z,94458.94
2023-04-10T19:53:58.689Z,94462.47
2023-04-10T19:56:28.713Z,94456.97
2023-04-10T19:58:56.872Z,94460.09
2023-04-10T20:01:25.405Z,94455.34
2023-04-10T20:03:53.644Z,94436.06
2023-04-10T20:06:24.167Z,94441.88
2023-04-10T20:08:52.477Z,94432.00
2023-04-10T20:11:20.645Z,94419.81
2023-04-10T20:13:49.095Z,94410.41
2023-04-10T20:16:17.538Z,94419.44
2023-04-10T20:18:45.754Z,94418.66
2023-04-10T20:21:13.634Z,94408.44
2023-04-10T20:23:42.956Z,94412.28
2023-04-10T20:26:12.944Z,94417.25
2023-04-10T20:28:41.228Z,94409.88
2023-04-10T20:31:11.178Z,94397.59
2023-04-10T20:33:39.238Z,94405.47
2023-04-10T20:36:08.203Z,94410.69
2023-04-10T20:38:36.219Z,94402.63
2023-04-10T20:41:05.655Z,94402.63
2023-04-10T20:43:33.806Z,94399.41
2023-04-10T20:46:04.522Z,94397.47
2023-04-10T20:48:32.531Z,94401.25
2023-04-10T20:51:00.659Z,94403.50
2023-04-10T20:53:29.237Z,94408.50
2023-04-10T20:55:57.203Z,94419.50
2023-04-10T20:58:26.558Z,94422.72
2023-04-10T21:00:54.869Z,94427.56
2023-04-10T21:03:22.979Z,94401.38
2023-04-10T21:05:53.477Z,94418.22
2023-04-10T21:08:22.015Z,94411.53
2023-04-10T21:10:49.953Z,94426.25
2023-04-10T21:13:17.919Z,94416.03
2023-04-10T21:15:49.665Z,94416.06
2023-04-10T21:18:17.867Z,94419.97
2023-04-10T21:20:46.361Z,94413.66
2023-04-10T21:23:14.358Z,94399.34
2023-04-10T21:25:42.240Z,94408.84
2023-04-10T21:28:10.130Z,94411.88
2023-04-10T21:30:38.029Z,94408.47
2023-04-10T21:33:07.451Z,94407.06
2023-04-10T21:35:35.448Z,94411.19
2023-04-10T21:38:03.913Z,94407.22
2023-04-10T21:40:34.382Z,94409.44
2023-04-10T21:43:02.614Z,94405.41
2023-04-10T21:45:30.990Z,94402.16
2023-04-10T21:48:00.461Z,94402.78
2023-04-10T21:50:29.825Z,94400.34
2023-04-10T21:52:57.949Z,94401.75
2023-04-10T21:55:25.794Z,94406.69
2023-04-10T21:57:53.713Z,94391.66
2023-04-10T22:00:23.120Z,94395.88
2023-04-10T22:02:51.845Z,94392.94
2023-04-10T22:05:20.008Z,94391.31
2023-04-10T22:07:49.273Z,94382.09
2023-04-10T22:10:17.408Z,94379.06
2023-04-10T22:12:48.407Z,94374.63
2023-04-10T22:15:17.305Z,94380.97
2023-04-10T22:17:45.380Z,94375.03
2023-04-10T22:20:13.667Z,94375.44
2023-04-10T22:22:41.562Z,94367.31
2023-04-10T22:25:10.952Z,94367.03
2023-04-10T22:27:38.877Z,94361.59
2023-04-10T22:30:09.851Z,94365.34
2023-04-10T22:32:38.309Z,94363.22
2023-04-10T22:35:07.663Z,94369.09
2023-04-10T22:37:35.564Z,94371.69
2023-04-10T22:40:03.552Z,94367.56
2023-04-10T22:42:32.981Z,94370.78
2023-04-10T22:45:00.872Z,94370.25
2023-04-10T22:47:31.479Z,94370.25
2023-04-10T22:49:59.487Z,94368.88
2023-04-10T22:52:27.404Z,94366.44
2023-04-10T22:54:55.254Z,94371.59
2023-04-10T22:57:23.435Z,94369.31
2023-04-10T22:59:52.710Z,94370.16
2023-04-10T23:02:20.746Z,94363.91
2023-04-10T23:04:48.733Z,94370.84
2023-04-10T23:07:16.694Z,94362.13
2023-04-10T23:09:44.632Z,94356.16
2023-04-10T23:12:12.516Z,94359.56
2023-04-10T23:14:40.401Z,94364.06
2023-04-10T23:17:09.604Z,94358.44
2023-04-10T23:19:37.462Z,94350.38
2023-04-10T23:22:05.482Z,94352.97
2023-04-10T23:24:33.562Z,94351.34
2023-04-10T23:27:01.472Z,94347.28
2023-04-10T23:29:29.476Z,94347.50
2023-04-10T23:31:57.416Z,94344.38
2023-04-10T23:34:27.579Z,94337.06
2023-04-10T23:36:55.835Z,94342.59
2023-04-10T23:39:23.749Z,94335.75
2023-04-10T23:41:51.814Z,94339.75
2023-04-10T23:44:19.695Z,94326.88
2023-04-10T23:46:50.255Z,94327.16
2023-04-10T23:49:18.395Z,94318.28
2023-04-10T23:51:47.656Z,94316.38
2023-04-10T23:54:15.691Z,94312.66
2023-04-10T23:56:43.578Z,94313.28
2023-04-10T23:59:11.526Z,94297.00
